Terminal Aerodrome Forecast
Issued by NWS Birmingham, AL

Home | Current Version | Previous Version | Text Only | Print | Product List | Glossary On
Versions: 1 2 3 4 5 6 7 8 9 10 11 12 13 14 15 16 17 18 19 20 21
361
FTUS44 KBMX 211150 AAA
TAFBHM
TAF AMD
KBHM 211150Z 2112/2212 17003KT 6SM RA OVC010
     FM211400 16005KT 4SM TSRA BR OVC010CB
     FM211700 17007KT 5SM -RA BR OVC025
     FM212100 19008KT P6SM OVC015=

USA.gov is the U.S. government's official web portal to all federal, state and local government web resources and services.